createdAt,value
2017-01-09T00:00:48.033Z,79.83
2017-01-09T00:02:09.835Z,79.45
2017-01-09T00:03:32.686Z,79.36
2017-01-09T00:04:54.746Z,79.74
2017-01-09T00:06:16.809Z,79.93
2017-01-09T00:07:39.281Z,80.02
2017-01-09T00:09:01.745Z,79.55
2017-01-09T00:10:24.241Z,79.74
2017-01-09T00:11:45.899Z,80.21
2017-01-09T00:13:08.829Z,79.64
2017-01-09T00:14:31.648Z,79.83
2017-01-09T00:15:53.763Z,79.55
2017-01-09T00:17:16.350Z,79.64
2017-01-09T00:18:38.014Z,79.55
2017-01-09T00:20:00.522Z,80.11
2017-01-09T00:21:23.028Z,79.64
2017-01-09T00:22:45.086Z,79.74
2017-01-09T00:24:07.579Z,80.11
2017-01-09T00:25:30.475Z,80.21
2017-01-09T00:26:52.561Z,80.3
2017-01-09T00:28:14.615Z,81.06
2017-01-09T00:29:37.086Z,80.58
2017-01-09T00:30:58.921Z,80.49
2017-01-09T00:32:20.623Z,80.4
2017-01-09T00:33:43.488Z,80.11
2017-01-09T00:35:05.143Z,80.21
2017-01-09T00:36:27.246Z,80.21
2017-01-09T00:37:49.716Z,80.4
2017-01-09T00:39:12.727Z,80.49
2017-01-09T00:40:34.788Z,80.3
2017-01-09T00:41:56.894Z,80.3
2017-01-09T00:43:19.411Z,80.21
2017-01-09T00:44:41.974Z,80.4
2017-01-09T00:46:03.685Z,80.96
2017-01-09T00:47:25.376Z,80.49
2017-01-09T00:48:48.374Z,80.96
2017-01-09T00:50:10.437Z,81.15
2017-01-09T00:51:32.899Z,81.44
2017-01-09T00:52:55.906Z,81.53
2017-01-09T00:54:17.966Z,80.68
2017-01-09T00:55:40.424Z,80.96
2017-01-09T00:57:02.230Z,81.53
2017-01-09T00:58:24.697Z,81.34
2017-01-09T00:59:47.558Z,81.25
2017-01-09T01:01:09.254Z,80.68
2017-01-09T01:02:31.732Z,80.77
2017-01-09T01:03:53.390Z,80.68
2017-01-09T01:05:16.410Z,81.44
2017-01-09T01:06:37.677Z,80.96
2017-01-09T01:07:59.745Z,81.15
2017-01-09T01:09:21.461Z,81.53
2017-01-09T01:10:43.191Z,81.63
2017-01-09T01:12:04.445Z,81.44
2017-01-09T01:13:26.514Z,81.72
2017-01-09T01:14:48.989Z,81.82
2017-01-09T01:16:11.056Z,81.25
2017-01-09T01:17:33.948Z,82.01
2017-01-09T01:18:55.638Z,81.82
2017-01-09T01:20:17.765Z,81.92
2017-01-09T01:21:39.547Z,81.92
2017-01-09T01:23:01.734Z,81.82
2017-01-09T01:24:23.805Z,82.01
2017-01-09T01:25:46.347Z,82.1
2017-01-09T01:27:08.416Z,82.1
2017-01-09T01:28:30.146Z,82.29
2017-01-09T01:29:52.611Z,82.01
2017-01-09T01:31:14.713Z,82.48
2017-01-09T01:32:37.174Z,81.82
2017-01-09T01:33:58.821Z,82.2
2017-01-09T01:35:20.875Z,82.2
2017-01-09T01:36:42.955Z,83.05
2017-01-09T01:38:05.024Z,82.48
2017-01-09T01:39:27.083Z,82.48
2017-01-09T01:40:49.147Z,82.76
2017-01-09T01:42:11.226Z,82.67
2017-01-09T01:43:32.974Z,82.67
2017-01-09T01:44:54.641Z,83.14
2017-01-09T01:46:17.157Z,83.33
2017-01-09T01:47:39.605Z,83.05
2017-01-09T01:49:01.273Z,83.24
2017-01-09T01:50:23.742Z,83.43
2017-01-09T01:51:45.775Z,82.29
2017-01-09T01:53:08.638Z,82.29
2017-01-09T01:54:30.690Z,82.76
2017-01-09T01:55:53.542Z,82.86
2017-01-09T01:57:16.083Z,83.43
2017-01-09T01:58:38.245Z,83.33
2017-01-09T02:00:00.714Z,83.71
2017-01-09T02:01:22.767Z,83.62
2017-01-09T02:02:44.464Z,83.81
2017-01-09T02:04:06.927Z,83.81
2017-01-09T02:05:28.603Z,83.05
2017-01-09T02:06:50.655Z,83.05
2017-01-09T02:08:12.313Z,83.05
2017-01-09T02:09:35.147Z,83.52
2017-01-09T02:10:57.285Z,84
2017-01-09T02:12:20.206Z,83.52
2017-01-09T02:13:43.047Z,83.14
2017-01-09T02:15:05.624Z,83.14
2017-01-09T02:16:27.326Z,82.86
2017-01-09T02:17:48.981Z,83.05
2017-01-09T02:19:11.936Z,83.05
2017-01-09T02:20:33.991Z,83.33
2017-01-09T02:21:55.243Z,83.24
2017-01-09T02:23:16.525Z,83.14
2017-01-09T02:24:39.424Z,82.67
2017-01-09T02:26:01.085Z,82.76
2017-01-09T02:27:22.754Z,82.67
2017-01-09T02:28:44.477Z,82.57
2017-01-09T02:30:07.336Z,82.29
2017-01-09T02:31:29.923Z,82.2
2017-01-09T02:32:51.992Z,81.92
2017-01-09T02:34:14.955Z,81.72
2017-01-09T02:35:37.415Z,82.1
2017-01-09T02:36:59.474Z,82.1
2017-01-09T02:38:21.144Z,81.63
2017-01-09T02:39:44.396Z,81.44
2017-01-09T02:41:06.533Z,81.72
2017-01-09T02:42:28.596Z,82.1
2017-01-09T02:43:51.063Z,82.1
2017-01-09T02:45:12.714Z,81.53
2017-01-09T02:46:35.180Z,80.96
2017-01-09T02:47:58.048Z,80.96
2017-01-09T02:49:20.502Z,81.15
2017-01-09T02:50:42.651Z,80.96
2017-01-09T02:52:05.613Z,80.58
2017-01-09T02:53:28.064Z,80.96
2017-01-09T02:54:49.721Z,80.21
2017-01-09T02:56:11.859Z,80.58
2017-01-09T02:57:33.960Z,80.58
2017-01-09T02:58:56.021Z,80.96
2017-01-09T03:00:18.913Z,81.06
2017-01-09T03:01:41.353Z,80.49
2017-01-09T03:03:03.971Z,80.3
2017-01-09T03:04:25.750Z,80.21
2017-01-09T03:05:47.827Z,80.02
2017-01-09T03:07:09.088Z,80.02
2017-01-09T03:08:31.997Z,79.45
2017-01-09T03:09:54.457Z,79.74
2017-01-09T03:11:16.661Z,79.64
2017-01-09T03:12:39.498Z,79.83
2017-01-09T03:14:01.548Z,79.64
2017-01-09T03:15:24.412Z,79.74
2017-01-09T03:16:46.591Z,79.64
2017-01-09T03:18:09.043Z,79.83
2017-01-09T03:19:31.648Z,79.64
2017-01-09T03:20:54.636Z,80.11
2017-01-09T03:22:16.302Z,79.83
2017-01-09T03:23:38.753Z,79.55
2017-01-09T03:25:01.259Z,79.55
2017-01-09T03:26:22.596Z,79.64
2017-01-09T03:27:45.150Z,79.64
2017-01-09T03:29:07.216Z,80.02
2017-01-09T03:30:29.732Z,79.45
2017-01-09T03:31:52.682Z,79.45
2017-01-09T03:33:15.150Z,79.64
2017-01-09T03:34:37.208Z,79.64
2017-01-09T03:35:59.671Z,79.64
2017-01-09T03:37:22.152Z,79.64
2017-01-09T03:38:43.882Z,79.64
2017-01-09T03:40:05.203Z,79.74
2017-01-09T03:41:27.283Z,80.11
2017-01-09T03:42:50.139Z,79.93
2017-01-09T03:44:12.423Z,80.02
2017-01-09T03:45:34.082Z,80.02
2017-01-09T03:46:55.733Z,80.02
2017-01-09T03:48:18.586Z,80.02
2017-01-09T03:49:41.060Z,80.11
2017-01-09T03:51:02.724Z,80.11
2017-01-09T03:52:24.439Z,80.02
2017-01-09T03:53:46.911Z,79.93
2017-01-09T03:55:09.012Z,80.02
2017-01-09T03:56:30.671Z,80.49
2017-01-09T03:57:53.153Z,80.11
2017-01-09T03:59:15.604Z,80.21
2017-01-09T04:00:37.828Z,80.3
2017-01-09T04:01:59.584Z,80.3
2017-01-09T04:03:22.091Z,80.3
2017-01-09T04:04:43.820Z,80.58
2017-01-09T04:06:05.881Z,80.3
2017-01-09T04:07:27.664Z,80.4
2017-01-09T04:08:49.725Z,80.4
2017-01-09T04:10:12.203Z,80.77
2017-01-09T04:11:34.664Z,80.96
2017-01-09T04:12:56.733Z,80.3
2017-01-09T04:14:19.699Z,80.87
2017-01-09T04:15:41.764Z,80.3
2017-01-09T04:17:03.558Z,80.4
2017-01-09T04:18:25.228Z,80.21
2017-01-09T04:19:48.183Z,80.4
2017-01-09T04:21:09.823Z,80.49
2017-01-09T04:22:31.543Z,80.21
2017-01-09T04:23:54.013Z,79.74
2017-01-09T04:25:16.863Z,80.4
2017-01-09T04:26:38.532Z,80.58
2017-01-09T04:28:01.019Z,80.4
2017-01-09T04:29:23.319Z,80.4
2017-01-09T04:30:46.210Z,80.02
2017-01-09T04:32:08.283Z,79.93
2017-01-09T04:33:30.774Z,79.64
2017-01-09T04:34:52.445Z,79.93
2017-01-09T04:36:14.928Z,79.74
2017-01-09T04:37:37.093Z,79.64
2017-01-09T04:38:58.757Z,79.83
2017-01-09T04:40:20.934Z,80.02
2017-01-09T04:41:42.613Z,79.26
2017-01-09T04:43:37.115Z,79.74
2017-01-09T04:44:58.867Z,79.93
2017-01-09T04:46:20.533Z,80.02
2017-01-09T04:47:42.587Z,79.64
2017-01-09T04:49:04.650Z,79.83
2017-01-09T04:50:26.305Z,79.45
2017-01-09T04:51:48.792Z,79.83
2017-01-09T04:53:11.239Z,79.45
2017-01-09T04:54:33.706Z,79.64
2017-01-09T04:55:55.985Z,79.64
2017-01-09T04:57:49.935Z,80.21
2017-01-09T04:59:12.404Z,79.74
2017-01-09T05:00:34.876Z,80.4
2017-01-09T05:01:57.140Z,79.74
2017-01-09T05:03:19.257Z,80.11
2017-01-09T05:04:41.334Z,80.11
2017-01-09T05:06:03.462Z,80.11
2017-01-09T05:07:25.945Z,80.02
2017-01-09T05:08:47.630Z,80.58
2017-01-09T05:10:09.336Z,80.68
2017-01-09T05:11:31.905Z,80.49
2017-01-09T05:12:54.774Z,80.4
2017-01-09T05:14:16.855Z,80.4
2017-01-09T05:15:39.871Z,80.3
2017-01-09T05:17:02.384Z,80.11
2017-01-09T05:18:25.390Z,80.3
2017-01-09T05:19:47.456Z,80.49
2017-01-09T05:21:09.975Z,80.4
2017-01-09T05:22:31.645Z,80.21
2017-01-09T05:23:54.115Z,80.4
2017-01-09T05:25:16.186Z,80.4
2017-01-09T05:26:37.474Z,80.3
2017-01-09T05:28:00.061Z,80.3
2017-01-09T05:29:22.508Z,80.3
2017-01-09T05:30:45.072Z,79.83
2017-01-09T05:32:07.527Z,79.74
2017-01-09T05:33:29.616Z,80.3
2017-01-09T05:34:51.731Z,80.3
2017-01-09T05:36:13.467Z,80.4
2017-01-09T05:37:36.017Z,80.11
2017-01-09T05:38:58.121Z,80.3
2017-01-09T05:40:20.217Z,80.49
2017-01-09T05:41:43.127Z,80.4
2017-01-09T05:43:05.580Z,80.58
2017-01-09T05:44:27.669Z,80.58
2017-01-09T05:45:50.138Z,80.3
2017-01-09T05:47:12.207Z,80.77
2017-01-09T05:48:34.726Z,81.06
2017-01-09T05:49:56.808Z,80.87
2017-01-09T05:51:18.882Z,80.3
2017-01-09T05:52:40.987Z,80.87
2017-01-09T05:54:02.641Z,80.21
2017-01-09T05:55:25.124Z,80.21
2017-01-09T05:56:46.794Z,80.58
2017-01-09T05:58:09.654Z,80.77
2017-01-09T05:59:31.329Z,80.4
2017-01-09T06:00:53.822Z,80.4
2017-01-09T06:02:16.276Z,80.4
2017-01-09T06:03:38.739Z,80.49
2017-01-09T06:05:01.604Z,80.77
2017-01-09T06:06:22.887Z,80.3
2017-01-09T06:07:44.953Z,80.96
2017-01-09T06:09:07.476Z,80.68
2017-01-09T06:10:30.075Z,80.3
2017-01-09T06:11:52.980Z,80.68
2017-01-09T06:13:15.057Z,80.3
2017-01-09T06:14:37.158Z,80.68
2017-01-09T06:15:58.841Z,80.49
2017-01-09T06:17:20.506Z,80.4
2017-01-09T06:18:42.182Z,80.3
2017-01-09T06:20:05.116Z,80.3
2017-01-09T06:21:28.005Z,79.93
2017-01-09T06:22:50.515Z,80.21
2017-01-09T06:24:12.199Z,80.02
2017-01-09T06:25:34.253Z,80.3
2017-01-09T06:26:57.076Z,80.21
2017-01-09T06:28:19.957Z,80.21
2017-01-09T06:29:42.208Z,80.4
2017-01-09T06:31:04.062Z,80.21
2017-01-09T06:32:26.142Z,80.49
2017-01-09T06:33:48.215Z,80.77
2017-01-09T06:35:09.867Z,80.68
2017-01-09T06:36:32.775Z,80.4
2017-01-09T06:37:54.822Z,80.11
2017-01-09T06:39:16.897Z,79.74
2017-01-09T06:40:39.001Z,80.21
2017-01-09T06:42:01.506Z,80.3
2017-01-09T06:43:24.372Z,80.21
2017-01-09T06:44:46.046Z,80.49
2017-01-09T06:46:08.139Z,80.58
2017-01-09T06:47:30.285Z,80.3
2017-01-09T06:48:52.736Z,80.21
2017-01-09T06:50:14.792Z,80.21
2017-01-09T06:51:36.941Z,80.49
2017-01-09T06:52:59.413Z,80.96
2017-01-09T06:54:21.470Z,80.58
2017-01-09T06:55:43.959Z,80.77
2017-01-09T06:57:06.411Z,80.77
2017-01-09T06:58:28.558Z,80.3
2017-01-09T06:59:49.815Z,80.58
2017-01-09T07:01:11.862Z,80.68
2017-01-09T07:02:34.492Z,80.77
2017-01-09T07:03:56.556Z,80.96
2017-01-09T07:05:18.660Z,80.4
2017-01-09T07:06:40.711Z,80.4
2017-01-09T07:08:03.726Z,80.68
2017-01-09T07:09:26.178Z,81.06
2017-01-09T07:10:48.369Z,80.96
2017-01-09T07:12:10.856Z,80.87
2017-01-09T07:13:32.241Z,80.96
2017-01-09T07:14:54.425Z,81.06
2017-01-09T07:16:16.108Z,80.58
2017-01-09T07:17:38.587Z,81.06
2017-01-09T07:19:01.067Z,80.87
2017-01-09T07:20:23.160Z,81.15
2017-01-09T07:21:45.234Z,80.96
2017-01-09T07:23:07.343Z,81.06
2017-01-09T07:24:29.006Z,80.96
2017-01-09T07:25:51.565Z,80.87
2017-01-09T07:27:13.642Z,80.77
2017-01-09T07:28:35.735Z,80.77
2017-01-09T07:29:58.279Z,81.25
2017-01-09T07:31:19.543Z,80.96
2017-01-09T07:32:41.607Z,81.06
2017-01-09T07:34:04.146Z,81.25
2017-01-09T07:35:26.999Z,81.44
2017-01-09T07:36:49.964Z,81.15
2017-01-09T07:38:11.625Z,81.15
2017-01-09T07:39:33.285Z,81.44
2017-01-09T07:40:56.253Z,81.82
2017-01-09T07:42:18.711Z,81.63
2017-01-09T07:43:41.170Z,81.63
2017-01-09T07:45:03.235Z,81.44
2017-01-09T07:46:26.203Z,81.44
2017-01-09T07:47:49.051Z,81.34
2017-01-09T07:49:11.515Z,81.44
2017-01-09T07:50:34.131Z,81.44
2017-01-09T07:51:56.190Z,81.06
2017-01-09T07:53:18.253Z,81.34
2017-01-09T07:54:41.115Z,81.25
2017-01-09T07:56:03.701Z,81.63
2017-01-09T07:57:24.555Z,81.44
2017-01-09T07:58:47.069Z,81.15
2017-01-09T08:00:09.123Z,81.15
2017-01-09T08:01:31.182Z,81.25
2017-01-09T08:02:53.683Z,81.34
2017-01-09T08:04:15.875Z,81.15
2017-01-09T08:05:37.968Z,81.06
2017-01-09T08:07:00.420Z,80.96
2017-01-09T08:08:22.894Z,80.77
2017-01-09T08:09:44.954Z,80.87
2017-01-09T08:11:06.955Z,80.87
2017-01-09T08:12:29.414Z,80.87
2017-01-09T08:13:51.886Z,81.06
2017-01-09T08:15:14.171Z,80.87
2017-01-09T08:16:37.123Z,80.87
2017-01-09T08:17:58.770Z,80.58
2017-01-09T08:19:20.603Z,80.49
2017-01-09T08:20:43.083Z,80.68
2017-01-09T08:22:06.045Z,80.68
2017-01-09T08:23:28.571Z,80.87
2017-01-09T08:24:51.021Z,80.87
2017-01-09T08:26:13.070Z,80.58
2017-01-09T08:27:34.806Z,80.87
2017-01-09T08:28:57.746Z,80.96
2017-01-09T08:30:20.204Z,80.96
2017-01-09T08:31:42.697Z,80.77
2017-01-09T08:33:04.785Z,81.06
2017-01-09T08:34:27.742Z,80.4
2017-01-09T08:35:50.254Z,80.49
2017-01-09T08:37:12.363Z,80.3
2017-01-09T08:38:34.423Z,80.21
2017-01-09T08:39:56.492Z,79.74
2017-01-09T08:41:18.199Z,80.02
2017-01-09T08:42:41.060Z,79.77
2017-01-09T08:44:03.657Z,79.55
2017-01-09T08:45:26.182Z,79.96
2017-01-09T08:46:48.249Z,79.64
2017-01-09T08:48:10.825Z,79.74
2017-01-09T08:49:32.892Z,79.96
2017-01-09T08:50:55.800Z,79.55
2017-01-09T08:52:17.692Z,79.58
2017-01-09T08:53:39.421Z,79.74
2017-01-09T08:55:02.294Z,79.74
2017-01-09T08:56:24.799Z,79.49
2017-01-09T08:57:46.624Z,79.39
2017-01-09T08:59:08.780Z,79.21
2017-01-09T09:00:30.039Z,79.11
2017-01-09T09:01:52.910Z,79.21
2017-01-09T09:03:15.017Z,78.73
2017-01-09T09:04:37.522Z,78.92
2017-01-09T09:05:59.608Z,78.64
2017-01-09T09:07:21.694Z,78.35
2017-01-09T09:08:44.256Z,78.64
2017-01-09T09:10:07.121Z,78.64
2017-01-09T09:11:28.904Z,78.45
2017-01-09T09:12:51.766Z,78.54
2017-01-09T09:14:14.091Z,78.26
2017-01-09T09:15:36.266Z,78.35
2017-01-09T09:16:57.924Z,78.35
2017-01-09T09:18:20.055Z,78.26
2017-01-09T09:19:42.906Z,78.54
2017-01-09T09:21:05.781Z,78.35
2017-01-09T09:22:28.763Z,78.35
2017-01-09T09:23:51.022Z,78.26
2017-01-09T09:25:13.062Z,78.35
2017-01-09T09:26:35.110Z,78.07
2017-01-09T09:27:57.701Z,77.88
2017-01-09T09:29:20.204Z,77.69
2017-01-09T09:30:42.751Z,78.64
2017-01-09T09:32:05.237Z,78.16
2017-01-09T09:33:27.723Z,77.97
2017-01-09T09:34:48.600Z,77.97
2017-01-09T09:36:10.674Z,77.78
2017-01-09T09:37:33.530Z,77.78
2017-01-09T09:38:56.000Z,77.97
2017-01-09T09:40:18.071Z,77.97
2017-01-09T09:41:41.061Z,78.35
2017-01-09T09:43:03.956Z,77.88
2017-01-09T09:44:26.826Z,78.07
2017-01-09T09:45:49.274Z,77.88
2017-01-09T09:47:11.842Z,78.07
2017-01-09T09:48:34.292Z,77.69
2017-01-09T09:49:56.442Z,77.5
2017-01-09T09:51:18.945Z,78.16
2017-01-09T09:52:41.433Z,78.26
2017-01-09T09:54:03.635Z,77.5
2017-01-09T09:55:25.309Z,77.78
2017-01-09T09:56:47.398Z,77.69
2017-01-09T09:58:09.467Z,77.22
2017-01-09T09:59:32.145Z,77.03
2017-01-09T10:00:54.361Z,76.65
2017-01-09T10:02:16.432Z,76.65
2017-01-09T10:03:38.911Z,76.59
2017-01-09T10:05:00.628Z,76.03
2017-01-09T10:06:23.546Z,76.21
2017-01-09T10:07:46.145Z,75.26
2017-01-09T10:09:08.718Z,75.36
2017-01-09T10:10:31.238Z,74.98
2017-01-09T10:11:54.125Z,75.45
2017-01-09T10:13:16.294Z,74.79
2017-01-09T10:14:39.157Z,74.88
2017-01-09T10:16:01.612Z,74.79
2017-01-09T10:17:23.685Z,74.51
2017-01-09T10:18:46.610Z,74.79
2017-01-09T10:20:08.740Z,74.69
2017-01-09T10:21:30.026Z,74.51
2017-01-09T10:22:52.961Z,73.94
2017-01-09T10:24:15.830Z,73.84
2017-01-09T10:25:37.909Z,74.07
2017-01-09T10:27:00.915Z,73.6
2017-01-09T10:28:23.816Z,74.16
2017-01-09T10:29:45.466Z,73.94
2017-01-09T10:31:08.517Z,73.65
2017-01-09T10:32:30.579Z,73.56
2017-01-09T10:33:53.043Z,73.84
2017-01-09T10:35:15.095Z,73.79
2017-01-09T10:36:37.174Z,73.27
2017-01-09T10:37:59.672Z,73.46
2017-01-09T10:39:21.727Z,72.99
2017-01-09T10:40:44.174Z,73.37
2017-01-09T10:42:06.830Z,73.22
2017-01-09T10:43:29.309Z,73.56
2017-01-09T10:44:51.818Z,73.46
2017-01-09T10:46:14.684Z,74.03
2017-01-09T10:47:36.373Z,73.84
2017-01-09T10:48:58.054Z,73.46
2017-01-09T10:50:19.769Z,73.75
2017-01-09T10:51:42.334Z,73.56
2017-01-09T10:53:04.567Z,73.27
2017-01-09T10:54:26.630Z,73.84
2017-01-09T10:55:47.931Z,74.03
2017-01-09T10:57:10.163Z,73.84
2017-01-09T10:58:31.838Z,73.56
2017-01-09T10:59:54.321Z,73.56
2017-01-09T11:01:16.454Z,73.18
2017-01-09T11:02:38.995Z,73.41
2017-01-09T11:04:01.982Z,73.22
2017-01-09T11:05:24.450Z,73.31
2017-01-09T11:06:46.504Z,72.64
2017-01-09T11:08:08.761Z,73.22
2017-01-09T11:09:31.347Z,72.64
2017-01-09T11:10:54.222Z,72.64
2017-01-09T11:12:16.391Z,72.93
2017-01-09T11:13:38.911Z,73.31
2017-01-09T11:15:01.008Z,72.36
2017-01-09T11:16:23.198Z,72.27
2017-01-09T11:17:46.315Z,72.45
2017-01-09T11:19:07.987Z,72.64
2017-01-09T11:20:30.887Z,72.45
2017-01-09T11:21:52.960Z,72.74
2017-01-09T11:23:15.485Z,72.64
2017-01-09T11:24:37.976Z,73.03
2017-01-09T11:25:59.634Z,73.22
2017-01-09T11:27:22.610Z,72.55
2017-01-09T11:28:44.755Z,73.12
2017-01-09T11:30:06.036Z,72.17
2017-01-09T11:31:28.495Z,72.64
2017-01-09T11:32:51.383Z,72.74
2017-01-09T11:34:13.946Z,72.64
2017-01-09T11:35:36.417Z,72.84
2017-01-09T11:36:58.092Z,73.12
2017-01-09T11:38:20.156Z,72.64
2017-01-09T11:39:42.636Z,72.55
2017-01-09T11:41:04.342Z,72.64
2017-01-09T11:42:26.422Z,72.64
2017-01-09T11:43:48.568Z,72.27
2017-01-09T11:45:11.014Z,71.6
2017-01-09T11:46:33.919Z,72.27
2017-01-09T11:47:54.815Z,72.45
2017-01-09T11:49:17.257Z,71.89
2017-01-09T11:50:39.157Z,71.6
2017-01-09T11:52:00.827Z,71.98
2017-01-09T11:53:22.515Z,71.41
2017-01-09T11:54:45.378Z,71.7
2017-01-09T11:56:07.871Z,71.98
2017-01-09T11:57:30.726Z,71.41
2017-01-09T11:58:53.211Z,71.32
2017-01-09T12:00:15.284Z,71.7
2017-01-09T12:01:37.817Z,71.7
2017-01-09T12:03:00.295Z,71.6
2017-01-09T12:04:22.571Z,71.7
2017-01-09T12:05:45.046Z,71.98
2017-01-09T12:07:07.493Z,72.08
2017-01-09T12:08:29.574Z,71.8
2017-01-09T12:09:52.140Z,72.36
2017-01-09T12:11:14.613Z,71.98
2017-01-09T12:12:37.173Z,71.41
2017-01-09T12:13:59.622Z,71.51
2017-01-09T12:15:22.259Z,71.22
2017-01-09T12:16:45.209Z,71.51
2017-01-09T12:18:07.806Z,71.51
2017-01-09T12:19:30.383Z,71.32
2017-01-09T12:20:53.009Z,71.32
2017-01-09T12:22:14.684Z,71.22
2017-01-09T12:23:36.767Z,71.32
2017-01-09T12:24:59.361Z,71.32
2017-01-09T12:26:22.233Z,71.41
2017-01-09T12:27:45.113Z,71.89
2017-01-09T12:29:07.184Z,72.08
2017-01-09T12:30:29.650Z,72.17
2017-01-09T12:31:52.170Z,72.17
2017-01-09T12:33:14.251Z,71.6
2017-01-09T12:34:37.293Z,71.98
2017-01-09T12:35:59.404Z,72.55
2017-01-09T12:37:22.418Z,72.17
2017-01-09T12:38:44.514Z,72.27
2017-01-09T12:40:07.002Z,72.17
2017-01-09T12:41:29.587Z,71.8
2017-01-09T12:42:51.709Z,72.36
2017-01-09T12:44:14.647Z,72.08
2017-01-09T12:45:37.120Z,71.22
2017-01-09T12:46:59.611Z,70.88
2017-01-09T12:48:21.744Z,71.26
2017-01-09T12:49:44.239Z,70.5
2017-01-09T12:51:05.511Z,70.31
2017-01-09T12:52:27.628Z,70.31
2017-01-09T12:53:50.082Z,69.74
2017-01-09T12:55:12.961Z,69.55
2017-01-09T12:56:35.036Z,69.46
2017-01-09T12:57:57.575Z,69.84
2017-01-09T12:59:20.033Z,70.31
2017-01-09T13:00:42.939Z,70.59
2017-01-09T13:02:04.589Z,70.88
2017-01-09T13:03:27.056Z,71.26
2017-01-09T13:04:48.795Z,71.07
2017-01-09T13:06:10.911Z,70.84
2017-01-09T13:07:32.969Z,72.08
2017-01-09T13:08:55.860Z,71.89
2017-01-09T13:10:17.131Z,72.08
2017-01-09T13:11:39.607Z,71.98
2017-01-09T13:13:01.291Z,73.03
2017-01-09T13:14:23.762Z,73.6
2017-01-09T13:15:45.943Z,74.32
2017-01-09T13:17:08.001Z,74.03
2017-01-09T13:18:30.234Z,74.32
2017-01-09T13:19:53.148Z,74.51
2017-01-09T13:21:15.209Z,74.51
2017-01-09T13:22:36.922Z,74.69
2017-01-09T13:23:58.586Z,75.17
2017-01-09T13:25:21.452Z,75.26
2017-01-09T13:26:43.908Z,75.36
2017-01-09T13:28:06.557Z,76.03
2017-01-09T13:29:29.008Z,75.93
2017-01-09T13:30:51.167Z,76.5
2017-01-09T13:32:13.652Z,76.68
2017-01-09T13:33:34.682Z,76.5
2017-01-09T13:34:56.740Z,76.5
2017-01-09T13:36:19.219Z,76.4
2017-01-09T13:37:41.731Z,76.4
2017-01-09T13:39:04.209Z,75.84
2017-01-09T13:40:27.102Z,76.12
2017-01-09T13:41:49.941Z,75.55
2017-01-09T13:43:12.062Z,74.98
2017-01-09T13:44:34.126Z,74.88
2017-01-09T13:45:56.613Z,74.6
2017-01-09T13:47:19.070Z,75.07
2017-01-09T13:48:41.121Z,74.69
2017-01-09T13:50:03.576Z,74.35
2017-01-09T13:51:26.063Z,74.35
2017-01-09T13:52:48.341Z,73.97
2017-01-09T13:54:10.526Z,73.79
2017-01-09T13:55:32.701Z,73.97
2017-01-09T13:56:55.178Z,74.26
2017-01-09T13:58:18.061Z,74.07
2017-01-09T13:59:39.731Z,73.97
2017-01-09T14:01:02.194Z,74.07
2017-01-09T14:02:25.138Z,73.88
2017-01-09T14:03:47.994Z,74.07
2017-01-09T14:05:10.853Z,74.16
2017-01-09T14:06:32.936Z,74.26
2017-01-09T14:07:55.477Z,74.35
2017-01-09T14:09:17.945Z,73.97
2017-01-09T14:10:40.860Z,73.97
2017-01-09T14:12:03.314Z,73.97
2017-01-09T14:13:26.266Z,73.97
2017-01-09T14:14:49.142Z,74.45
2017-01-09T14:16:12.089Z,74.16
2017-01-09T14:17:34.156Z,74.22
2017-01-09T14:18:57.177Z,74.69
2017-01-09T14:20:19.644Z,74.69
2017-01-09T14:21:41.744Z,75.26
2017-01-09T14:23:03.849Z,74.98
2017-01-09T14:24:25.943Z,75.36
2017-01-09T14:25:48.900Z,75.64
2017-01-09T14:27:10.596Z,75.36
2017-01-09T14:28:32.714Z,75.74
2017-01-09T14:29:54.837Z,75.64
2017-01-09T14:31:17.441Z,75.74
2017-01-09T14:32:40.068Z,76.03
2017-01-09T14:34:02.123Z,75.84
2017-01-09T14:35:24.571Z,75.84
2017-01-09T14:36:47.086Z,75.84
2017-01-09T14:38:09.551Z,76.12
2017-01-09T14:39:32.413Z,75.64
2017-01-09T14:40:54.485Z,75.36
2017-01-09T14:42:16.553Z,76.21
2017-01-09T14:43:38.627Z,76.21
2017-01-09T14:45:01.485Z,75.64
2017-01-09T14:46:23.580Z,75.55
2017-01-09T14:47:45.273Z,75.93
2017-01-09T14:49:07.751Z,76.21
2017-01-09T14:50:30.645Z,76.31
2017-01-09T14:51:52.018Z,76.31
2017-01-09T14:53:14.934Z,76.5
2017-01-09T14:54:37.027Z,76.68
2017-01-09T14:55:59.494Z,77.16
2017-01-09T14:57:22.455Z,76.68
2017-01-09T14:58:45.032Z,77.45
2017-01-09T15:00:07.512Z,76.87
2017-01-09T15:01:30.553Z,77.06
2017-01-09T15:02:53.433Z,76.97
2017-01-09T15:04:15.233Z,77.35
2017-01-09T15:05:38.120Z,76.87
2017-01-09T15:07:00.603Z,77.73
2017-01-09T15:08:21.921Z,76.87
2017-01-09T15:09:44.787Z,76.97
2017-01-09T15:11:07.665Z,77.64
2017-01-09T15:12:30.576Z,77.45
2017-01-09T15:13:53.086Z,77.54
2017-01-09T15:15:15.546Z,77.83
2017-01-09T15:16:38.677Z,77.73
2017-01-09T15:18:01.160Z,78.02
2017-01-09T15:19:24.137Z,78.2
2017-01-09T15:20:47.020Z,77.73
2017-01-09T15:22:09.528Z,77.73
2017-01-09T15:23:32.008Z,77.92
2017-01-09T15:24:54.493Z,78.02
2017-01-09T15:26:16.157Z,78.2
2017-01-09T15:27:38.640Z,78.02
2017-01-09T15:29:01.515Z,77.92
2017-01-09T15:30:24.015Z,78.49
2017-01-09T15:31:46.496Z,78.11
2017-01-09T15:33:08.291Z,78.49
2017-01-09T15:34:31.196Z,78.39
2017-01-09T15:35:53.721Z,78.73
2017-01-09T15:37:16.213Z,78.39
2017-01-09T15:38:38.782Z,78.39
2017-01-09T15:40:01.326Z,78.45
2017-01-09T15:41:24.245Z,78.49
2017-01-09T15:42:46.746Z,78.73
2017-01-09T15:44:09.711Z,78.3
2017-01-09T15:45:31.809Z,78.26
2017-01-09T15:46:54.375Z,78.45
2017-01-09T15:48:16.450Z,78.45
2017-01-09T15:49:39.344Z,78.35
2017-01-09T15:51:02.224Z,78.35
2017-01-09T15:52:24.701Z,78.83
2017-01-09T15:53:47.582Z,78.83
2017-01-09T15:55:10.074Z,78.73
2017-01-09T15:56:32.599Z,78.83
2017-01-09T15:57:54.744Z,79.02
2017-01-09T15:59:17.252Z,79.02
2017-01-09T16:00:40.188Z,79.21
2017-01-09T16:02:03.052Z,79.21
2017-01-09T16:03:25.173Z,79.3
2017-01-09T16:04:47.641Z,79.68
2017-01-09T16:06:10.504Z,79.58
2017-01-09T16:07:33.039Z,80.06
2017-01-09T16:08:55.121Z,80.06
2017-01-09T16:10:17.217Z,80.06
2017-01-09T16:11:40.110Z,80.25
2017-01-09T16:13:02.205Z,79.96
2017-01-09T16:14:24.285Z,80.06
2017-01-09T16:15:47.184Z,80.25
2017-01-09T16:17:09.727Z,80.44
2017-01-09T16:18:32.330Z,80.63
2017-01-09T16:19:54.818Z,80.44
2017-01-09T16:21:17.334Z,80.34
2017-01-09T16:22:39.399Z,80.53
2017-01-09T16:24:02.350Z,80.53
2017-01-09T16:25:24.848Z,81.01
2017-01-09T16:26:47.330Z,80.72
2017-01-09T16:28:09.799Z,80.91
2017-01-09T16:29:32.314Z,81.1
2017-01-09T16:30:55.193Z,81.29
2017-01-09T16:32:18.066Z,81.67
2017-01-09T16:33:40.547Z,81.48
2017-01-09T16:35:03.038Z,81.48
2017-01-09T16:36:24.802Z,81.57
2017-01-09T16:37:47.317Z,81.29
2017-01-09T16:39:09.802Z,81.57
2017-01-09T16:40:32.727Z,81.57
2017-01-09T16:41:55.023Z,81.67
2017-01-09T16:43:16.897Z,81.29
2017-01-09T16:44:38.759Z,81.01
2017-01-09T16:45:59.857Z,81.2
2017-01-09T16:47:22.126Z,81.67
2017-01-09T16:48:44.433Z,81.29
2017-01-09T16:50:06.734Z,81.29
2017-01-09T16:51:29.067Z,80.91
2017-01-09T16:52:51.351Z,81.1
2017-01-09T16:54:13.219Z,81.2
2017-01-09T16:55:35.496Z,81.29
2017-01-09T16:56:57.772Z,81.38
2017-01-09T16:58:19.477Z,81.38
2017-01-09T16:59:41.758Z,81.48
2017-01-09T17:01:03.247Z,81.2
2017-01-09T17:02:25.152Z,81.67
2017-01-09T17:03:47.556Z,81.1
2017-01-09T17:05:09.462Z,81.48
2017-01-09T17:06:31.807Z,82.24
2017-01-09T17:07:53.714Z,81.67
2017-01-09T17:09:16.020Z,81.29
2017-01-09T17:10:38.291Z,81.57
2017-01-09T17:12:00.572Z,81.76
2017-01-09T17:13:22.634Z,81.67
2017-01-09T17:14:44.941Z,81.76
2017-01-09T17:16:06.444Z,81.95
2017-01-09T17:17:28.376Z,82.71
2017-01-09T17:18:50.664Z,83.56
2017-01-09T17:20:13.576Z,84.23
2017-01-09T17:21:35.918Z,84.42
2017-01-09T17:22:57.879Z,84.89
2017-01-09T17:24:20.148Z,85.36
2017-01-09T17:25:42.037Z,86.12
2017-01-09T17:27:03.923Z,86.41
2017-01-09T17:28:25.386Z,86.55
2017-01-09T17:29:47.660Z,86.88
2017-01-09T17:31:09.585Z,86.79
2017-01-09T17:32:31.967Z,86.93
2017-01-09T17:33:54.268Z,86.69
2017-01-09T17:35:15.756Z,86.74
2017-01-09T17:36:38.098Z,86.83
2017-01-09T17:38:00.107Z,86.93
2017-01-09T17:39:21.979Z,86.27
2017-01-09T17:40:44.398Z,86.27
2017-01-09T17:42:06.672Z,86.65
2017-01-09T17:43:28.577Z,86.83
2017-01-09T17:44:50.575Z,87.16